createdAt,value
2019-06-15T00:00:09.292Z,983.13
2019-06-15T00:01:07.494Z,983.09
2019-06-15T00:02:07.697Z,983.03
2019-06-15T00:03:07.957Z,983.04
2019-06-15T00:04:08.138Z,983.02
2019-06-15T00:05:08.330Z,983.01
2019-06-15T00:06:08.552Z,982.97
2019-06-15T00:07:08.773Z,982.94
2019-06-15T00:08:08.988Z,982.95
2019-06-15T00:09:09.211Z,982.90
2019-06-15T00:10:09.416Z,982.89
2019-06-15T00:11:09.627Z,982.87
2019-06-15T00:12:09.855Z,982.85
2019-06-15T00:13:10.058Z,982.79
2019-06-15T00:14:10.271Z,982.81
2019-06-15T00:15:12.291Z,982.79
2019-06-15T00:16:10.634Z,982.74
2019-06-15T00:17:10.861Z,982.68
2019-06-15T00:18:11.061Z,982.64
2019-06-15T00:19:11.270Z,982.59
2019-06-15T00:20:11.493Z,982.58
2019-06-15T00:21:11.699Z,982.57
2019-06-15T00:22:13.799Z,982.55
2019-06-15T00:23:12.118Z,982.53
2019-06-15T00:24:14.297Z,982.50
2019-06-15T00:25:12.526Z,982.41
2019-06-15T00:26:12.623Z,982.44
2019-06-15T00:27:12.836Z,982.46
2019-06-15T00:28:13.048Z,982.43
2019-06-15T00:29:14.823Z,982.37
2019-06-15T00:30:13.425Z,982.33
2019-06-15T00:31:15.296Z,982.35
2019-06-15T00:32:13.745Z,982.31
2019-06-15T00:33:15.794Z,982.27
2019-06-15T00:34:14.130Z,982.30
2019-06-15T00:35:16.314Z,982.23
2019-06-15T00:36:14.539Z,982.28
2019-06-15T00:37:14.744Z,982.29
2019-06-15T00:38:16.795Z,982.31
2019-06-15T00:39:15.148Z,982.36
2019-06-15T00:40:15.357Z,982.32
2019-06-15T00:41:15.541Z,982.31
2019-06-15T00:42:15.774Z,982.35
2019-06-15T00:43:17.795Z,982.42
2019-06-15T00:44:16.135Z,982.33
2019-06-15T00:45:20.298Z,982.34
2019-06-15T00:46:18.300Z,982.34
2019-06-15T00:47:18.297Z,982.33
2019-06-15T00:48:16.760Z,982.33
2019-06-15T00:49:18.805Z,982.33
2019-06-15T00:50:17.132Z,982.30
2019-06-15T00:51:17.361Z,982.30
2019-06-15T00:52:17.568Z,982.22
2019-06-15T00:53:17.777Z,982.20
2019-06-15T00:54:19.801Z,982.19
2019-06-15T00:55:18.140Z,982.16
2019-06-15T00:56:18.340Z,982.14
2019-06-15T00:57:20.295Z,982.12
2019-06-15T00:58:18.774Z,982.08
2019-06-15T00:59:18.971Z,982.11
2019-06-15T01:00:20.798Z,982.09
2019-06-15T01:01:19.392Z,982.08
2019-06-15T01:02:19.617Z,982.04
2019-06-15T01:03:19.843Z,982.01
2019-06-15T01:04:20.052Z,981.97
2019-06-15T01:05:20.255Z,981.96
2019-06-15T01:06:20.482Z,981.91
2019-06-15T01:07:20.710Z,981.88
2019-06-15T01:08:22.811Z,981.87
2019-06-15T01:09:22.805Z,981.84
2019-06-15T01:10:21.259Z,981.74
2019-06-15T01:11:21.472Z,981.76
2019-06-15T01:12:21.677Z,981.68
2019-06-15T01:13:23.794Z,981.72
2019-06-15T01:14:22.025Z,981.67
2019-06-15T01:15:22.240Z,981.62
2019-06-15T01:16:22.479Z,981.57
2019-06-15T01:17:22.591Z,981.55
2019-06-15T01:18:22.804Z,981.48
2019-06-15T01:19:23.014Z,981.44
2019-06-15T01:20:26.796Z,981.39
2019-06-15T01:21:25.302Z,981.35
2019-06-15T01:22:23.564Z,981.32
2019-06-15T01:23:23.747Z,981.23
2019-06-15T01:24:23.960Z,981.14
2019-06-15T01:25:24.170Z,981.11
2019-06-15T01:26:24.377Z,981.05
2019-06-15T01:27:24.591Z,981.06
2019-06-15T01:28:24.806Z,981.01
2019-06-15T01:29:25.020Z,981.00
2019-06-15T01:30:25.263Z,980.95
2019-06-15T01:31:25.446Z,980.94
2019-06-15T01:32:25.655Z,980.97
2019-06-15T01:33:29.825Z,980.99
2019-06-15T01:34:26.079Z,980.97
2019-06-15T01:35:26.252Z,980.98
2019-06-15T01:36:26.457Z,980.99
2019-06-15T01:37:26.660Z,980.97
2019-06-15T01:38:26.870Z,980.96
2019-06-15T01:39:27.095Z,980.93
2019-06-15T01:40:28.811Z,980.85
2019-06-15T01:41:29.301Z,980.85
2019-06-15T01:42:27.626Z,980.86
2019-06-15T01:43:27.841Z,980.87
2019-06-15T01:44:28.054Z,980.84
2019-06-15T01:45:29.261Z,980.86
2019-06-15T01:46:28.482Z,980.89
2019-06-15T01:47:28.678Z,980.96
2019-06-15T01:48:28.898Z,981.03
2019-06-15T01:49:29.099Z,981.04
2019-06-15T01:50:29.330Z,981.05
2019-06-15T01:51:29.544Z,980.99
2019-06-15T01:52:29.774Z,980.92
2019-06-15T01:53:30.012Z,980.89
2019-06-15T01:54:30.207Z,980.89
2019-06-15T01:55:32.303Z,980.85
2019-06-15T01:56:30.661Z,980.83
2019-06-15T01:57:30.765Z,980.88
2019-06-15T01:58:30.969Z,980.88
2019-06-15T01:59:31.186Z,980.89
2019-06-15T02:00:31.402Z,980.88
2019-06-15T02:01:31.610Z,980.88
2019-06-15T02:02:31.817Z,980.85
2019-06-15T02:03:32.022Z,980.75
2019-06-15T02:04:39.813Z,980.79
2019-06-15T02:05:32.413Z,980.67
2019-06-15T02:06:32.627Z,980.66
2019-06-15T02:07:32.851Z,980.70
2019-06-15T02:08:34.808Z,980.75
2019-06-15T02:09:34.804Z,980.83
2019-06-15T02:10:33.413Z,980.94
2019-06-15T02:11:33.607Z,980.96
2019-06-15T02:12:35.311Z,981.00
2019-06-15T02:13:34.016Z,980.91
2019-06-15T02:14:34.232Z,980.87
2019-06-15T02:15:36.307Z,980.89
2019-06-15T02:16:36.136Z,980.84
2019-06-15T02:17:34.830Z,980.83
2019-06-15T02:18:35.037Z,980.90
2019-06-15T02:19:35.247Z,980.93
2019-06-15T02:20:35.459Z,980.94
2019-06-15T02:21:35.727Z,980.88
2019-06-15T02:22:35.894Z,980.77
2019-06-15T02:23:36.113Z,980.62
2019-06-15T02:24:37.303Z,980.65
2019-06-15T02:25:36.829Z,980.59
2019-06-15T02:26:36.718Z,980.51
2019-06-15T02:27:38.804Z,980.48
2019-06-15T02:28:38.137Z,980.48
2019-06-15T02:29:37.357Z,980.57
2019-06-15T02:30:37.596Z,980.59
2019-06-15T02:31:37.790Z,980.55
2019-06-15T02:32:38.040Z,980.55
2019-06-15T02:33:38.241Z,980.54
2019-06-15T02:34:38.494Z,980.65
2019-06-15T02:35:38.666Z,980.69
2019-06-15T02:36:38.877Z,980.78
2019-06-15T02:37:40.801Z,980.76
2019-06-15T02:38:40.812Z,980.68
2019-06-15T02:39:39.398Z,980.63
2019-06-15T02:40:41.305Z,980.66
2019-06-15T02:41:41.310Z,980.61
2019-06-15T02:42:39.894Z,980.59
2019-06-15T02:43:40.098Z,980.56
2019-06-15T02:44:41.318Z,980.52
2019-06-15T02:45:40.570Z,980.50
2019-06-15T02:46:40.751Z,980.51
2019-06-15T02:47:44.805Z,980.52
2019-06-15T02:48:42.813Z,980.49
2019-06-15T02:49:41.265Z,980.48
2019-06-15T02:50:41.505Z,980.58
2019-06-15T02:51:41.734Z,980.59
2019-06-15T02:52:41.934Z,980.57
2019-06-15T02:53:45.327Z,980.53
2019-06-15T02:54:42.362Z,980.49
2019-06-15T02:55:50.722Z,980.47
2019-06-15T02:56:42.769Z,980.45
2019-06-15T02:57:42.968Z,980.48
2019-06-15T02:58:44.810Z,980.43
2019-06-15T02:59:43.399Z,980.50
2019-06-15T03:00:43.634Z,980.49
2019-06-15T03:01:43.737Z,980.53
2019-06-15T03:02:43.951Z,980.62
2019-06-15T03:03:44.177Z,980.72
2019-06-15T03:04:46.310Z,980.71
2019-06-15T03:05:46.313Z,980.75
2019-06-15T03:06:44.663Z,980.71
2019-06-15T03:07:44.873Z,980.69
2019-06-15T03:08:45.081Z,980.67
2019-06-15T03:09:45.291Z,980.68
2019-06-15T03:10:45.494Z,980.65
2019-06-15T03:11:47.305Z,980.71
2019-06-15T03:12:45.885Z,980.71
2019-06-15T03:13:46.094Z,980.66
2019-06-15T03:14:46.300Z,980.63
2019-06-15T03:15:48.308Z,980.58
2019-06-15T03:16:46.644Z,980.64
2019-06-15T03:17:48.814Z,980.60
2019-06-15T03:18:47.012Z,980.64
2019-06-15T03:19:48.826Z,980.69
2019-06-15T03:20:47.435Z,980.72
2019-06-15T03:21:49.309Z,980.77
2019-06-15T03:22:47.817Z,980.79
2019-06-15T03:23:51.817Z,980.83
2019-06-15T03:24:48.141Z,980.83
2019-06-15T03:26:02.196Z,980.82
2019-06-15T03:26:48.529Z,980.79
2019-06-15T03:27:48.752Z,980.85
2019-06-15T03:28:50.844Z,980.86
2019-06-15T03:29:49.140Z,980.79
2019-06-15T03:30:49.347Z,980.75
2019-06-15T03:31:49.571Z,980.82
2019-06-15T03:32:49.775Z,980.83
2019-06-15T03:33:49.977Z,980.78
2019-06-15T03:34:50.220Z,980.75
2019-06-15T03:35:50.413Z,980.70
2019-06-15T03:36:50.639Z,980.70
2019-06-15T03:37:50.849Z,980.70
2019-06-15T03:38:51.067Z,980.70
2019-06-15T03:39:52.806Z,980.69
2019-06-15T03:40:59.312Z,980.68
2019-06-15T03:41:51.634Z,980.77
2019-06-15T03:42:52.845Z,980.75
2019-06-15T03:43:52.056Z,980.72
2019-06-15T03:44:52.319Z,980.71
2019-06-15T03:45:52.475Z,980.68
2019-06-15T03:46:54.330Z,980.66
2019-06-15T03:47:54.311Z,980.68
2019-06-15T03:48:53.019Z,980.68
2019-06-15T03:49:53.240Z,980.73
2019-06-15T03:50:53.459Z,980.67
2019-06-15T03:51:53.664Z,980.65
2019-06-15T03:52:55.813Z,980.61
2019-06-15T03:53:54.026Z,980.67
2019-06-15T03:54:55.821Z,980.66
2019-06-15T03:55:54.439Z,980.64
2019-06-15T03:56:54.662Z,980.62
2019-06-15T03:57:54.837Z,980.60
2019-06-15T03:58:55.051Z,980.60
2019-06-15T03:59:56.811Z,980.57
2019-06-15T04:00:55.402Z,980.60
2019-06-15T04:01:55.617Z,980.58
2019-06-15T04:02:57.869Z,980.54
2019-06-15T04:03:56.025Z,980.58
2019-06-15T04:04:56.239Z,980.62
2019-06-15T04:05:56.449Z,980.62
2019-06-15T04:06:56.646Z,980.64
2019-06-15T04:07:58.812Z,980.60
2019-06-15T04:08:57.026Z,980.61
2019-06-15T04:09:57.220Z,980.58
2019-06-15T04:10:57.429Z,980.55
2019-06-15T04:11:59.321Z,980.51
2019-06-15T04:12:59.324Z,980.50
2019-06-15T04:13:57.914Z,980.51
2019-06-15T04:14:59.811Z,980.48
2019-06-15T04:15:58.272Z,980.46
2019-06-15T04:16:58.471Z,980.46
2019-06-15T04:18:02.311Z,980.43
2019-06-15T04:18:58.885Z,980.43
2019-06-15T04:19:59.094Z,980.46
2019-06-15T04:20:59.307Z,980.48
2019-06-15T04:21:59.560Z,980.45
2019-06-15T04:23:02.332Z,980.46
2019-06-15T04:24:01.316Z,980.41
2019-06-15T04:25:00.021Z,980.44
2019-06-15T04:26:00.229Z,980.39
2019-06-15T04:27:00.458Z,980.40
2019-06-15T04:28:02.324Z,980.44
2019-06-15T04:29:00.794Z,980.43
2019-06-15T04:30:08.825Z,980.40
2019-06-15T04:31:01.141Z,980.45
2019-06-15T04:32:01.353Z,980.39
2019-06-15T04:33:01.572Z,980.35
2019-06-15T04:34:01.775Z,980.37
2019-06-15T04:35:02.013Z,980.38
2019-06-15T04:36:02.108Z,980.36
2019-06-15T04:37:02.360Z,980.29
2019-06-15T04:38:02.567Z,980.28
2019-06-15T04:39:02.781Z,980.30
2019-06-15T04:40:09.823Z,980.30
2019-06-15T04:41:03.145Z,980.31
2019-06-15T04:42:05.317Z,980.31
2019-06-15T04:43:03.535Z,980.31
2019-06-15T04:44:05.321Z,980.37
2019-06-15T04:45:07.813Z,980.36
2019-06-15T04:46:04.028Z,980.44
2019-06-15T04:47:05.825Z,980.46
2019-06-15T04:48:04.427Z,980.48
2019-06-15T04:49:04.617Z,980.53
2019-06-15T04:50:04.827Z,980.60
2019-06-15T04:51:05.041Z,980.62
2019-06-15T04:52:05.255Z,980.61
2019-06-15T04:53:05.458Z,980.62
2019-06-15T04:54:05.677Z,980.66
2019-06-15T04:55:05.885Z,980.64
2019-06-15T04:56:07.826Z,980.69
2019-06-15T04:57:06.288Z,980.66
2019-06-15T04:58:06.519Z,980.67
2019-06-15T04:59:06.734Z,980.72
2019-06-15T05:00:06.959Z,980.74
2019-06-15T05:01:07.157Z,980.80
2019-06-15T05:02:07.368Z,980.82
2019-06-15T05:03:07.572Z,980.82
2019-06-15T05:04:09.321Z,980.80
2019-06-15T05:05:07.930Z,980.85
2019-06-15T05:06:11.824Z,980.86
2019-06-15T05:07:09.817Z,980.85
2019-06-15T05:08:11.817Z,980.90
2019-06-15T05:09:10.323Z,980.92
2019-06-15T05:10:08.669Z,980.94
2019-06-15T05:11:10.879Z,980.99
2019-06-15T05:12:10.828Z,981.03
2019-06-15T05:13:10.861Z,981.04
2019-06-15T05:14:15.337Z,981.06
2019-06-15T05:15:10.680Z,981.06
2019-06-15T05:16:11.822Z,981.03
2019-06-15T05:17:10.039Z,981.01
2019-06-15T05:18:10.238Z,981.00
2019-06-15T05:19:10.454Z,981.03
2019-06-15T05:20:12.412Z,981.01
2019-06-15T05:21:10.829Z,981.04
2019-06-15T05:22:14.837Z,981.02
2019-06-15T05:23:11.183Z,981.03
2019-06-15T05:24:11.417Z,981.01
2019-06-15T05:25:13.322Z,980.98
2019-06-15T05:26:13.325Z,981.01
2019-06-15T05:27:12.790Z,981.01
2019-06-15T05:28:12.013Z,980.93
2019-06-15T05:29:13.831Z,981.01
2019-06-15T05:30:12.434Z,981.14
2019-06-15T05:31:14.321Z,981.00
2019-06-15T05:32:14.325Z,980.94
2019-06-15T05:33:13.917Z,981.04
2019-06-15T05:34:13.134Z,981.03
2019-06-15T05:35:23.563Z,980.96
2019-06-15T05:36:14.578Z,980.92
2019-06-15T05:37:17.339Z,980.93
2019-06-15T05:38:13.955Z,981.09
2019-06-15T05:39:14.161Z,981.08
2019-06-15T05:40:17.344Z,981.01
2019-06-15T05:41:18.367Z,981.06
2019-06-15T05:42:14.788Z,981.08
2019-06-15T05:43:18.843Z,981.10
2019-06-15T05:44:15.178Z,981.11
2019-06-15T05:45:31.319Z,981.14
2019-06-15T05:46:19.321Z,981.11
2019-06-15T05:47:21.319Z,981.10
2019-06-15T05:48:15.768Z,981.19
2019-06-15T05:49:16.025Z,981.31
2019-06-15T05:50:16.139Z,981.31
2019-06-15T05:51:16.344Z,981.31
2019-06-15T05:52:18.325Z,981.28
2019-06-15T05:53:16.783Z,981.29
2019-06-15T05:54:16.990Z,981.35
2019-06-15T05:55:17.239Z,981.31
2019-06-15T05:56:17.370Z,981.38
2019-06-15T05:57:21.875Z,981.41
2019-06-15T05:58:23.379Z,981.43
2019-06-15T05:59:19.868Z,981.42
2019-06-15T06:00:18.034Z,981.41
2019-06-15T06:01:19.867Z,981.44
2019-06-15T06:02:24.734Z,981.55
2019-06-15T06:03:18.653Z,981.51
2019-06-15T06:04:18.865Z,981.54
2019-06-15T06:05:19.083Z,981.56
2019-06-15T06:06:22.825Z,981.58
2019-06-15T06:07:26.348Z,981.58
2019-06-15T06:08:22.289Z,981.59
2019-06-15T06:09:23.882Z,981.67
2019-06-15T06:10:22.781Z,981.65
2019-06-15T06:11:21.821Z,981.60
2019-06-15T06:12:20.405Z,981.60
2019-06-15T06:13:22.362Z,981.67
2019-06-15T06:14:20.845Z,981.72
2019-06-15T06:15:26.833Z,981.71
2019-06-15T06:16:24.833Z,981.69
2019-06-15T06:17:23.932Z,981.77
2019-06-15T06:18:44.361Z,981.79
2019-06-15T06:19:24.277Z,981.86
2019-06-15T06:20:44.824Z,981.81
2019-06-15T06:21:23.824Z,981.85
2019-06-15T06:22:24.285Z,981.91
2019-06-15T06:23:22.647Z,981.90
2019-06-15T06:24:24.824Z,981.94
2019-06-15T06:25:24.030Z,981.93
2019-06-15T06:26:38.849Z,981.97
2019-06-15T06:27:36.569Z,981.99
2019-06-15T06:28:26.389Z,981.99
2019-06-15T06:29:36.310Z,982.02
2019-06-15T06:30:23.906Z,981.96
2019-06-15T06:31:32.783Z,982.03
2019-06-15T06:32:24.250Z,982.08
2019-06-15T06:33:24.658Z,982.12
2019-06-15T06:34:28.324Z,982.10
2019-06-15T06:35:27.286Z,982.18
2019-06-15T06:36:25.789Z,982.18
2019-06-15T06:37:26.871Z,982.27
2019-06-15T06:38:25.390Z,982.30
2019-06-15T06:39:27.330Z,982.28
2019-06-15T06:40:25.782Z,982.43
2019-06-15T06:41:28.799Z,982.47
2019-06-15T06:42:29.828Z,982.57
2019-06-15T06:43:48.829Z,982.58
2019-06-15T06:44:28.282Z,982.53
2019-06-15T06:45:28.364Z,982.47
2019-06-15T06:46:26.948Z,982.57
2019-06-15T06:47:28.859Z,982.61
2019-06-15T06:48:28.278Z,982.73
2019-06-15T06:49:28.780Z,982.70
2019-06-15T06:50:29.334Z,982.78
2019-06-15T06:51:29.393Z,982.88
2019-06-15T06:52:52.861Z,982.84
2019-06-15T06:53:29.855Z,982.84
2019-06-15T06:54:30.281Z,982.87
2019-06-15T06:55:30.328Z,982.86
2019-06-15T06:56:31.315Z,982.84
2019-06-15T06:57:32.338Z,982.88
2019-06-15T06:58:29.784Z,982.88
2019-06-15T06:59:30.023Z,982.89
2019-06-15T07:00:29.251Z,982.89
2019-06-15T07:01:31.335Z,982.90
2019-06-15T07:02:31.337Z,982.91
2019-06-15T07:03:32.306Z,982.89
2019-06-15T07:04:32.308Z,982.95
2019-06-15T07:05:31.841Z,982.86
2019-06-15T07:06:31.838Z,982.89
2019-06-15T07:07:34.329Z,982.90
2019-06-15T07:08:48.312Z,982.90
2019-06-15T07:09:31.927Z,982.87
2019-06-15T07:10:31.022Z,982.91
2019-06-15T07:11:32.284Z,982.95
2019-06-15T07:12:31.390Z,982.91
2019-06-15T07:13:35.339Z,982.92
2019-06-15T07:14:33.034Z,982.93
2019-06-15T07:15:36.812Z,982.91
2019-06-15T07:16:32.807Z,982.90
2019-06-15T07:17:32.298Z,982.94
2019-06-15T07:18:33.289Z,983.04
2019-06-15T07:19:36.331Z,983.07
2019-06-15T07:20:36.282Z,982.97
2019-06-15T07:21:34.871Z,983.05
2019-06-15T07:22:33.231Z,983.01
2019-06-15T07:23:34.873Z,982.99
2019-06-15T07:24:33.484Z,983.16
2019-06-15T07:25:33.702Z,983.05
2019-06-15T07:26:34.792Z,983.03
2019-06-15T07:27:35.831Z,983.11
2019-06-15T07:28:38.453Z,983.19
2019-06-15T07:29:36.330Z,983.33
2019-06-15T07:30:36.331Z,983.35
2019-06-15T07:31:34.915Z,983.43
2019-06-15T07:32:35.128Z,983.64
2019-06-15T07:33:35.354Z,983.66
2019-06-15T07:34:35.620Z,983.72
2019-06-15T07:35:36.742Z,983.68
2019-06-15T07:36:37.866Z,983.60
2019-06-15T07:37:36.095Z,983.59
2019-06-15T07:38:37.842Z,983.56
2019-06-15T07:39:36.428Z,983.56
2019-06-15T07:40:40.371Z,983.48
2019-06-15T07:41:42.858Z,983.43
2019-06-15T07:42:39.380Z,983.43
2019-06-15T07:43:37.313Z,983.40
2019-06-15T07:44:38.571Z,983.47
2019-06-15T07:45:38.679Z,983.45
2019-06-15T07:46:37.921Z,983.48
2019-06-15T07:47:38.138Z,983.54
2019-06-15T07:48:40.340Z,983.47
2019-06-15T07:49:54.804Z,983.44
2019-06-15T07:50:40.335Z,983.55
2019-06-15T07:51:39.127Z,983.51
2019-06-15T07:52:40.850Z,983.60
2019-06-15T07:53:40.835Z,983.47
2019-06-15T07:54:41.355Z,983.49
2019-06-15T07:55:41.712Z,983.60
2019-06-15T07:56:39.900Z,983.58
2019-06-15T07:57:41.835Z,983.64
2019-06-15T07:58:40.372Z,983.67
2019-06-15T07:59:41.795Z,983.66
2019-06-15T08:00:42.404Z,983.70
2019-06-15T08:01:42.887Z,983.73
2019-06-15T08:02:41.559Z,983.73
2019-06-15T08:03:43.494Z,983.77
2019-06-15T08:04:43.371Z,983.74
2019-06-15T08:05:43.346Z,983.79
2019-06-15T08:06:41.797Z,983.78
2019-06-15T08:07:43.803Z,983.78
2019-06-15T08:08:42.175Z,983.77
2019-06-15T08:09:46.417Z,983.83
2019-06-15T08:10:42.577Z,983.91
2019-06-15T08:11:45.930Z,983.86
2019-06-15T08:12:44.840Z,983.79
2019-06-15T08:13:43.220Z,983.79
2019-06-15T08:14:43.337Z,983.85
2019-06-15T08:15:45.337Z,983.83
2019-06-15T08:16:43.816Z,983.79
2019-06-15T08:17:48.802Z,983.80
2019-06-15T08:18:44.184Z,983.93
2019-06-15T08:19:45.853Z,983.85
2019-06-15T08:21:00.337Z,983.92
2019-06-15T08:22:00.494Z,983.95
2019-06-15T08:22:46.377Z,983.89
2019-06-15T08:23:44.989Z,984.07
2019-06-15T08:24:45.256Z,984.15
2019-06-15T08:25:46.482Z,984.12
2019-06-15T08:26:47.397Z,984.14
2019-06-15T08:27:47.465Z,984.12
2019-06-15T08:28:47.020Z,984.14
2019-06-15T08:29:47.798Z,984.13
2019-06-15T08:30:47.852Z,984.12
2019-06-15T08:31:46.436Z,984.04
2019-06-15T08:32:49.300Z,984.06
2019-06-15T08:33:46.779Z,984.09
2019-06-15T08:34:48.824Z,984.11
2019-06-15T08:35:50.826Z,984.19
2019-06-15T08:36:51.419Z,984.08
2019-06-15T08:37:48.588Z,984.22
2019-06-15T08:38:47.677Z,984.16
2019-06-15T08:39:51.849Z,984.16
2019-06-15T08:40:52.008Z,984.19
2019-06-15T08:41:49.801Z,984.26
2019-06-15T08:42:49.436Z,984.32
2019-06-15T08:43:48.541Z,984.37
2019-06-15T08:44:50.793Z,984.42
2019-06-15T08:45:50.871Z,984.47
2019-06-15T08:46:51.105Z,984.67
2019-06-15T08:47:50.845Z,984.74
2019-06-15T08:48:50.958Z,984.75
2019-06-15T08:49:53.353Z,984.81
2019-06-15T08:50:51.297Z,984.14
2019-06-15T08:51:50.044Z,984.88
2019-06-15T08:52:53.843Z,984.86
2019-06-15T08:53:52.842Z,985.11
2019-06-15T08:54:52.354Z,985.03
2019-06-15T08:55:55.326Z,985.05
2019-06-15T08:56:53.300Z,984.29
2019-06-15T08:57:57.870Z,985.03
2019-06-15T08:58:55.759Z,985.14
2019-06-15T08:59:55.345Z,984.27
2019-06-15T09:00:59.369Z,984.31
2019-06-15T09:01:54.067Z,984.40
2019-06-15T09:02:53.846Z,985.12
2019-06-15T09:03:54.809Z,984.29
2019-06-15T09:04:57.304Z,985.17
2019-06-15T09:05:59.348Z,984.42
2019-06-15T09:06:53.673Z,984.29
2019-06-15T09:07:54.195Z,984.37
2019-06-15T09:08:54.843Z,985.02
2019-06-15T09:09:56.388Z,984.65
2019-06-15T09:10:56.302Z,985.02
2019-06-15T09:11:53.791Z,985.05
2019-06-15T09:12:56.798Z,985.07
2019-06-15T09:13:55.841Z,985.10
2019-06-15T09:14:57.304Z,985.13
2019-06-15T09:16:10.345Z,984.56
2019-06-15T09:16:54.811Z,984.52
2019-06-15T09:18:01.859Z,985.15
2019-06-15T09:19:02.155Z,984.71
2019-06-15T09:19:58.844Z,985.23
2019-06-15T09:20:58.337Z,984.58
2019-06-15T09:21:55.663Z,985.28
2019-06-15T09:23:04.643Z,984.61
2019-06-15T09:24:00.022Z,984.62
2019-06-15T09:25:00.368Z,984.64
2019-06-15T09:26:04.762Z,984.54
2019-06-15T09:26:57.807Z,984.65
2019-06-15T09:27:59.845Z,984.59
2019-06-15T09:29:10.682Z,984.58
2019-06-15T09:30:05.609Z,984.62
2019-06-15T09:30:57.401Z,984.62
2019-06-15T09:31:59.348Z,984.63
2019-06-15T09:33:00.104Z,984.80
2019-06-15T09:34:10.037Z,984.82
2019-06-15T09:35:03.860Z,984.75
2019-06-15T09:36:00.827Z,985.47
2019-06-15T09:36:58.568Z,985.67
2019-06-15T09:38:01.392Z,985.04
2019-06-15T09:39:02.848Z,984.85
2019-06-15T09:39:59.222Z,984.85
2019-06-15T09:41:00.809Z,984.77
2019-06-15T09:42:01.396Z,985.72
2019-06-15T09:42:59.905Z,985.73
2019-06-15T09:44:03.300Z,984.89
2019-06-15T09:45:03.863Z,985.07
2019-06-15T09:46:02.138Z,985.43
2019-06-15T09:47:02.360Z,984.96
2019-06-15T09:48:00.698Z,985.64
2019-06-15T09:49:00.931Z,984.97
2019-06-15T09:50:02.804Z,985.09
2019-06-15T09:51:01.327Z,984.91
2019-06-15T09:52:01.441Z,984.93
2019-06-15T09:53:08.349Z,984.90
2019-06-15T09:54:05.841Z,984.89
2019-06-15T09:55:02.052Z,984.92
2019-06-15T09:56:02.325Z,984.93
2019-06-15T09:57:06.353Z,984.95
2019-06-15T09:58:04.416Z,984.96
2019-06-15T09:59:06.348Z,985.00
2019-06-15T10:00:05.716Z,985.04
2019-06-15T10:01:04.287Z,985.00
2019-06-15T10:02:11.374Z,985.08
2019-06-15T10:03:03.692Z,985.12
2019-06-15T10:04:03.923Z,985.14
2019-06-15T10:05:07.803Z,985.20
2019-06-15T10:06:05.655Z,985.15
2019-06-15T10:07:04.442Z,986.02
2019-06-15T10:08:06.360Z,985.25
2019-06-15T10:09:06.398Z,985.25
2019-06-15T10:10:06.941Z,986.09
2019-06-15T10:11:06.851Z,985.22
2019-06-15T10:12:10.319Z,986.20
2019-06-15T10:13:13.362Z,985.32
2019-06-15T10:14:06.733Z,985.23
2019-06-15T10:15:09.338Z,985.24
2019-06-15T10:16:06.053Z,985.25
2019-06-15T10:17:10.337Z,985.28
2019-06-15T10:18:08.361Z,985.33
2019-06-15T10:19:06.723Z,985.42
2019-06-15T10:20:08.850Z,985.39
2019-06-15T10:21:08.810Z,985.44
2019-06-15T10:22:07.417Z,985.50
2019-06-15T10:23:11.364Z,986.45
2019-06-15T10:24:32.363Z,986.54
2019-06-15T10:25:08.058Z,986.52
2019-06-15T10:26:08.207Z,986.55
2019-06-15T10:27:08.425Z,985.57
2019-06-15T10:28:12.351Z,986.33
2019-06-15T10:29:10.353Z,986.12
2019-06-15T10:30:10.901Z,986.06
2019-06-15T10:31:09.860Z,986.00
2019-06-15T10:32:13.352Z,985.77
2019-06-15T10:33:14.333Z,985.78
2019-06-15T10:34:10.846Z,986.04
2019-06-15T10:35:09.993Z,986.00
2019-06-15T10:36:16.885Z,985.87
2019-06-15T10:37:11.813Z,985.56
2019-06-15T10:38:17.387Z,985.99
2019-06-15T10:39:12.318Z,986.04
2019-06-15T10:40:12.445Z,986.02
2019-06-15T10:41:11.122Z,986.04
2019-06-15T10:42:11.362Z,985.99
2019-06-15T10:43:13.058Z,986.05
2019-06-15T10:44:11.667Z,986.06
2019-06-15T10:45:19.861Z,986.04
2019-06-15T10:46:13.866Z,986.02
2019-06-15T10:47:18.875Z,985.97
2019-06-15T10:48:14.354Z,986.08
2019-06-15T10:49:14.831Z,985.88
2019-06-15T10:51:49.086Z,986.01
2019-06-15T10:52:47.587Z,986.02
2019-06-15T10:53:47.770Z,985.99
2019-06-15T10:54:46.255Z,986.00
2019-06-15T10:55:48.082Z,986.04
2019-06-15T10:56:48.047Z,986.09
2019-06-15T10:57:48.634Z,986.07
2019-06-15T10:58:49.083Z,986.00
2019-06-15T10:59:56.727Z,986.16
2019-06-15T11:00:48.932Z,985.86
2019-06-15T11:01:48.663Z,985.97
2019-06-15T11:02:52.135Z,986.07
2019-06-15T11:03:49.622Z,985.94
2019-06-15T11:04:50.042Z,986.04
2019-06-15T11:05:50.198Z,985.98
2019-06-15T11:07:11.048Z,985.94
2019-06-15T11:07:50.589Z,985.99
2019-06-15T11:08:50.653Z,985.97
2019-06-15T11:09:50.045Z,986.04
2019-06-15T11:10:49.162Z,986.12
2019-06-15T11:11:50.082Z,985.97
2019-06-15T11:12:57.094Z,986.07
2019-06-15T11:13:57.611Z,985.94
2019-06-15T11:14:51.621Z,985.90
2019-06-15T11:15:54.542Z,985.89
2019-06-15T11:16:50.428Z,985.90
2019-06-15T11:17:52.100Z,985.88
2019-06-15T11:18:52.592Z,985.85
2019-06-15T11:19:52.586Z,985.83
2019-06-15T11:20:53.042Z,985.70
2019-06-15T11:21:51.283Z,985.74
2019-06-15T11:22:53.086Z,985.83
2019-06-15T11:23:53.564Z,985.78
2019-06-15T11:24:55.617Z,985.87
2019-06-15T11:26:13.098Z,985.91
2019-06-15T11:26:54.851Z,985.99
2019-06-15T11:27:52.557Z,985.91
2019-06-15T11:28:54.601Z,985.90
2019-06-15T11:30:12.344Z,985.97
2019-06-15T11:30:55.610Z,985.87
2019-06-15T11:31:57.085Z,985.86
2019-06-15T11:32:56.539Z,985.82
2019-06-15T11:33:57.087Z,985.92
2019-06-15T11:34:56.544Z,985.86
2019-06-15T11:35:54.041Z,985.85
2019-06-15T11:36:54.168Z,985.86
2019-06-15T11:37:55.065Z,985.85
2019-06-15T11:38:58.538Z,985.85
2019-06-15T11:39:56.588Z,985.83
2019-06-15T11:40:54.923Z,985.89
2019-06-15T11:41:55.189Z,985.92
2019-06-15T11:42:57.090Z,985.90
2019-06-15T11:43:57.114Z,985.89
2019-06-15T11:44:55.752Z,985.88
2019-06-15T11:45:55.863Z,985.80
2019-06-15T11:46:59.602Z,985.78
2019-06-15T11:48:03.094Z,985.84
2019-06-15T11:48:58.093Z,985.86
2019-06-15T11:49:56.749Z,985.80
2019-06-15T11:50:58.906Z,985.89
2019-06-15T11:51:58.595Z,985.81
2019-06-15T11:52:59.048Z,985.90
2019-06-15T11:53:57.437Z,985.88
2019-06-15T11:54:59.094Z,985.90
2019-06-15T11:56:01.636Z,985.89
2019-06-15T11:56:59.600Z,985.86
2019-06-15T11:58:00.088Z,985.85
2019-06-15T11:59:01.085Z,985.91
2019-06-15T12:00:02.130Z,985.95
2019-06-15T12:01:14.598Z,985.90
2019-06-15T12:02:02.637Z,985.83
2019-06-15T12:02:59.760Z,985.87
2019-06-15T12:04:06.094Z,985.90
2019-06-15T12:04:59.432Z,985.85
2019-06-15T12:06:03.045Z,985.85
2019-06-15T12:07:01.591Z,985.89
2019-06-15T12:08:00.563Z,985.94
2019-06-15T12:09:04.097Z,986.02
2019-06-15T12:10:02.103Z,986.00
2019-06-15T12:11:00.561Z,985.97
2019-06-15T12:12:01.780Z,985.97
2019-06-15T12:13:04.589Z,986.07
2019-06-15T12:14:03.092Z,985.96
2019-06-15T12:15:03.601Z,985.96
2019-06-15T12:16:05.091Z,985.94
2019-06-15T12:17:01.691Z,985.94
2019-06-15T12:18:01.931Z,985.95
2019-06-15T12:19:03.053Z,986.02
2019-06-15T12:20:04.126Z,985.97
2019-06-15T12:21:02.479Z,985.92
2019-06-15T12:22:05.566Z,985.87
2019-06-15T12:23:04.602Z,985.91
2019-06-15T12:24:07.555Z,985.94
2019-06-15T12:25:04.281Z,985.94
2019-06-15T12:26:03.509Z,985.99
2019-06-15T12:27:05.601Z,985.97
2019-06-15T12:28:07.599Z,985.89
2019-06-15T12:29:04.107Z,985.93
2019-06-15T12:30:08.106Z,985.91
2019-06-15T12:31:06.116Z,985.96
2019-06-15T12:32:04.593Z,985.96